createdAt,value
2022-08-05T00:00:20.052Z,4.08
2022-08-05T00:02:51.117Z,5.34
2022-08-05T00:06:02.764Z,4.88
2022-08-05T00:09:15.815Z,6.05
2022-08-05T00:11:48.481Z,4.43
2022-08-05T00:14:20.837Z,4.43
2022-08-05T00:15:56.229Z,4.75
2022-08-05T00:16:52.995Z,4.45
2022-08-05T00:17:52.888Z,4.70
2022-08-05T00:19:01.741Z,4.50
2022-08-05T00:20:12.262Z,4.85
2022-08-05T00:21:23.410Z,4.48
2022-08-05T00:22:34.103Z,6.30
2022-08-05T00:23:53.753Z,4.75
2022-08-05T00:25:00.099Z,5.25
2022-08-05T00:26:11.268Z,4.62
2022-08-05T00:27:21.307Z,4.15
2022-08-05T00:28:32.953Z,4.55
2022-08-05T00:29:42.934Z,5.05
2022-08-05T00:30:53.627Z,5.45
2022-08-05T00:34:53.951Z,5.58
2022-08-05T00:34:55.421Z,4.38
2022-08-05T00:35:48.018Z,4.75
2022-08-05T00:37:11.391Z,6.20
2022-08-05T00:38:04.999Z,5.12
2022-08-05T00:40:31.881Z,4.80
2022-08-05T00:41:51.578Z,6.65
2022-08-05T00:44:15.325Z,5.67
2022-08-05T00:45:24.990Z,6.50
2022-08-05T00:47:57.228Z,5.53
2022-08-05T00:49:02.712Z,4.62
2022-08-05T00:50:12.648Z,4.50
2022-08-05T00:52:36.595Z,4.50
2022-08-05T00:54:00.820Z,6.67
2022-08-05T00:55:00.501Z,5.80
2022-08-05T00:56:10.046Z,7.50
2022-08-05T00:58:37.011Z,4.13
2022-08-05T00:59:46.329Z,4.60
2022-08-05T01:02:14.833Z,4.20
2022-08-05T01:03:31.028Z,5.00
2022-08-05T01:05:54.871Z,4.85
2022-08-05T01:08:40.576Z,4.67
2022-08-05T01:12:23.765Z,4.30
2022-08-05T01:13:59.335Z,3.80
2022-08-05T01:15:35.480Z,4.72
2022-08-05T01:18:04.073Z,4.70
2022-08-05T01:19:56.489Z,4.25
2022-08-05T01:20:54.444Z,4.75
2022-08-05T01:23:57.451Z,3.75
2022-08-05T01:25:11.479Z,4.45
2022-08-05T01:28:18.734Z,4.13
2022-08-05T01:32:18.416Z,4.10
2022-08-05T01:35:03.000Z,5.30
2022-08-05T01:36:17.567Z,6.67
2022-08-05T01:38:55.859Z,5.57
2022-08-05T01:40:07.323Z,4.25
2022-08-05T01:42:38.066Z,4.72
2022-08-05T01:43:52.032Z,5.55
2022-08-05T01:45:03.464Z,4.65
2022-08-05T01:46:16.092Z,4.62
2022-08-05T01:47:38.854Z,5.55
2022-08-05T01:48:39.483Z,5.00
2022-08-05T01:50:01.450Z,3.93
2022-08-05T01:51:12.548Z,4.27
2022-08-05T01:52:21.143Z,6.93
2022-08-05T01:53:54.648Z,4.17
2022-08-05T01:58:12.355Z,4.70
2022-08-05T01:58:12.461Z,4.50
2022-08-05T02:00:35.623Z,4.40
2022-08-05T02:03:31.253Z,4.40
2022-08-05T02:04:38.436Z,4.70
2022-08-05T02:05:53.485Z,4.07
2022-08-05T02:07:03.533Z,4.38
2022-08-05T02:08:14.913Z,4.37
2022-08-05T02:09:26.547Z,5.17
2022-08-05T02:12:28.571Z,4.27
2022-08-05T02:15:14.258Z,5.43
2022-08-05T02:22:47.985Z,4.62
2022-08-05T02:25:21.687Z,6.98
2022-08-05T02:29:59.452Z,4.68
2022-08-05T02:32:23.728Z,4.35
2022-08-05T02:33:57.836Z,6.70
2022-08-05T02:35:13.854Z,3.98
2022-08-05T02:36:23.038Z,4.00
2022-08-05T02:37:35.875Z,5.18
2022-08-05T02:38:53.553Z,5.58
2022-08-05T02:40:00.825Z,5.70
2022-08-05T02:42:30.768Z,3.85
2022-08-05T02:44:06.220Z,4.45
2022-08-05T02:46:08.425Z,5.02
2022-08-05T02:47:22.120Z,7.83
2022-08-05T02:49:50.155Z,4.70
2022-08-05T02:51:04.551Z,5.12
2022-08-05T02:52:29.652Z,3.65
2022-08-05T02:54:52.354Z,4.20
2022-08-05T02:56:03.357Z,4.93
2022-08-05T02:58:10.504Z,6.37
2022-08-05T02:58:31.774Z,6.33
2022-08-05T02:59:50.333Z,4.10
2022-08-05T03:02:20.049Z,4.40
2022-08-05T03:04:53.255Z,5.57
2022-08-05T03:08:00.583Z,4.85
2022-08-05T03:08:43.011Z,5.15
2022-08-05T03:09:52.945Z,4.15
2022-08-05T03:13:51.915Z,4.05
2022-08-05T03:16:24.557Z,4.38
2022-08-05T03:17:34.780Z,4.87
2022-08-05T03:20:21.202Z,4.05
2022-08-05T03:21:41.343Z,7.25
2022-08-05T03:23:58.325Z,4.40
2022-08-05T03:25:33.302Z,5.05
2022-08-05T03:26:31.378Z,5.20
2022-08-05T03:28:49.771Z,25.23
2022-08-05T03:30:08.472Z,6.36
2022-08-05T03:32:30.929Z,7.35
2022-08-05T03:33:51.116Z,7.12
2022-08-05T03:36:11.986Z,7.40
2022-08-05T03:38:44.475Z,7.30
2022-08-05T03:42:51.660Z,5.92
2022-08-05T03:44:09.830Z,8.05
2022-08-05T03:46:26.863Z,5.22
2022-08-05T03:47:41.414Z,6.55
2022-08-05T03:50:03.737Z,5.82
2022-08-05T03:55:06.810Z,5.47
2022-08-05T03:57:16.704Z,6.05
2022-08-05T03:58:28.905Z,6.48
2022-08-05T04:00:57.712Z,6.30
2022-08-05T04:03:29.311Z,7.95
2022-08-05T04:05:59.271Z,7.85
2022-08-05T04:07:10.620Z,6.27
2022-08-05T04:08:34.939Z,6.97
2022-08-05T04:09:32.731Z,6.55
2022-08-05T04:10:45.800Z,7.30
2022-08-05T04:11:58.243Z,6.50
2022-08-05T04:14:29.809Z,8.00
2022-08-05T04:15:37.090Z,8.27
2022-08-05T04:16:49.172Z,10.60
2022-08-05T04:18:07.406Z,8.70
2022-08-05T04:20:31.887Z,40.30
2022-08-05T04:22:58.787Z,10.68
2022-08-05T04:27:10.876Z,11.43
2022-08-05T04:29:55.454Z,8.25
2022-08-05T04:32:33.545Z,8.53
2022-08-05T04:35:00.179Z,10.70
2022-08-05T04:36:15.972Z,8.63
2022-08-05T04:38:02.616Z,9.05
2022-08-05T04:38:39.898Z,8.70
2022-08-05T04:40:59.742Z,9.52
2022-08-05T04:42:10.902Z,9.33
2022-08-05T04:43:21.918Z,9.80
2022-08-05T04:44:31.933Z,10.40
2022-08-05T04:45:49.041Z,10.53
2022-08-05T04:46:53.898Z,10.53
2022-08-05T04:49:38.348Z,11.83
2022-08-05T04:52:00.772Z,13.60
2022-08-05T04:53:11.932Z,12.97
2022-08-05T04:56:15.455Z,11.88
2022-08-05T04:59:38.247Z,10.57
2022-08-05T05:02:06.761Z,10.75
2022-08-05T05:07:11.174Z,15.17
2022-08-05T05:09:52.259Z,17.37
2022-08-05T05:11:10.644Z,18.30
2022-08-05T05:12:22.224Z,17.67
2022-08-05T05:14:50.755Z,14.92
2022-08-05T05:16:05.923Z,13.93
2022-08-05T05:18:31.004Z,13.35
2022-08-05T05:19:47.278Z,12.43
2022-08-05T05:22:22.601Z,13.20
2022-08-05T05:24:58.035Z,11.80
2022-08-05T05:28:56.218Z,11.75
2022-08-05T05:30:08.323Z,13.65
2022-08-05T05:31:19.372Z,10.15
2022-08-05T05:32:30.073Z,10.70
2022-08-05T05:33:41.145Z,10.85
2022-08-05T05:34:52.464Z,10.53
2022-08-05T05:37:17.054Z,9.15
2022-08-05T05:38:27.764Z,10.80
2022-08-05T05:40:53.523Z,11.53
2022-08-05T05:43:27.451Z,13.87
2022-08-05T05:44:36.516Z,15.60
2022-08-05T05:45:48.286Z,18.63
2022-08-05T05:46:54.835Z,15.65
2022-08-05T05:48:08.422Z,16.15
2022-08-05T05:49:22.575Z,12.88
2022-08-05T05:51:50.312Z,12.88
2022-08-05T05:54:20.639Z,11.93
2022-08-05T05:55:52.220Z,12.80
2022-08-05T05:58:02.995Z,12.78
2022-08-05T06:00:34.075Z,14.63
2022-08-05T06:04:25.661Z,14.27
2022-08-05T06:05:34.682Z,14.98
2022-08-05T06:06:47.774Z,15.68
2022-08-05T06:08:01.143Z,18.57
2022-08-05T06:10:22.343Z,17.65
2022-08-05T06:12:50.849Z,18.53
2022-08-05T06:16:45.453Z,15.45
2022-08-05T06:19:33.989Z,17.85
2022-08-05T06:23:12.131Z,20.00
2022-08-05T06:26:12.620Z,17.06
2022-08-05T06:29:48.964Z,20.07
2022-08-05T06:32:25.291Z,21.32
2022-08-05T06:36:09.862Z,22.20
2022-08-05T06:37:56.725Z,19.00
2022-08-05T06:38:35.956Z,18.75
2022-08-05T06:39:42.347Z,17.68
2022-08-05T06:40:53.538Z,17.08
2022-08-05T06:42:03.907Z,16.27
2022-08-05T06:43:59.047Z,16.75
2022-08-05T06:44:25.241Z,16.15
2022-08-05T06:46:51.278Z,15.55
2022-08-05T06:48:47.320Z,16.70
2022-08-05T06:49:12.752Z,14.92
2022-08-05T06:50:26.193Z,15.88
2022-08-05T06:51:40.739Z,16.40
2022-08-05T06:53:03.560Z,16.18
2022-08-05T06:55:18.015Z,14.23
2022-08-05T06:56:34.296Z,15.55
2022-08-05T06:58:58.774Z,16.02
2022-08-05T07:00:12.970Z,15.05
2022-08-05T07:03:03.974Z,15.60
2022-08-05T07:04:19.178Z,15.33
2022-08-05T07:05:37.755Z,16.35
2022-08-05T07:08:02.126Z,16.15
2022-08-05T07:09:11.851Z,20.87
2022-08-05T07:11:40.557Z,16.70
2022-08-05T07:13:08.925Z,19.10
2022-08-05T07:16:12.254Z,25.50
2022-08-05T07:18:09.067Z,17.47
2022-08-05T07:22:38.864Z,16.03
2022-08-05T07:25:22.090Z,15.55
2022-08-05T07:27:27.693Z,15.82
2022-08-05T07:32:53.249Z,16.50
2022-08-05T07:36:03.790Z,18.27
2022-08-05T07:39:24.696Z,21.05
2022-08-05T07:40:31.653Z,21.95
2022-08-05T07:42:07.927Z,20.98
2022-08-05T07:42:48.899Z,21.85
2022-08-05T07:45:17.489Z,20.02
2022-08-05T07:46:31.031Z,16.92
2022-08-05T07:49:01.973Z,13.97
2022-08-05T07:50:10.606Z,11.95
2022-08-05T07:51:23.092Z,13.45
2022-08-05T07:53:50.319Z,11.64
2022-08-05T07:54:56.932Z,12.20
2022-08-05T07:57:56.339Z,11.20
2022-08-05T07:58:58.717Z,13.32
2022-08-05T08:01:01.991Z,14.37
2022-08-05T08:03:44.095Z,15.25
2022-08-05T08:07:24.720Z,12.38
2022-08-05T08:08:35.356Z,12.87
2022-08-05T08:09:44.777Z,10.67
2022-08-05T08:13:29.197Z,14.97
2022-08-05T08:14:32.764Z,14.75
2022-08-05T08:16:56.722Z,17.02
2022-08-05T08:18:13.836Z,15.25
2022-08-05T08:20:43.402Z,17.55
2022-08-05T08:21:43.417Z,18.08
2022-08-05T08:24:16.353Z,17.73
2022-08-05T08:26:00.108Z,13.98
2022-08-05T08:27:56.343Z,13.60
2022-08-05T08:29:29.479Z,13.23
2022-08-05T08:30:29.811Z,12.63
2022-08-05T08:32:46.574Z,12.85
2022-08-05T08:35:13.749Z,14.66
2022-08-05T08:39:25.251Z,15.37
2022-08-05T08:40:37.051Z,17.65
2022-08-05T08:41:50.764Z,17.62
2022-08-05T08:45:24.220Z,17.35
2022-08-05T08:45:31.886Z,17.20
2022-08-05T08:46:43.808Z,17.75
2022-08-05T08:50:12.845Z,18.88
2022-08-05T08:54:43.928Z,20.25
2022-08-05T08:57:13.337Z,21.45
2022-08-05T08:58:26.080Z,21.25
2022-08-05T09:00:53.258Z,20.75
2022-08-05T09:03:23.210Z,21.05
2022-08-05T09:06:08.840Z,20.38
2022-08-05T09:09:50.985Z,19.10
2022-08-05T09:12:20.739Z,19.02
2022-08-05T09:14:58.725Z,19.53
2022-08-05T09:17:43.057Z,18.62
2022-08-05T09:18:43.951Z,19.48
2022-08-05T09:21:11.711Z,18.10
2022-08-05T09:22:31.350Z,18.15
2022-08-05T09:28:03.962Z,19.80
2022-08-05T09:30:17.988Z,18.88
2022-08-05T09:32:39.855Z,19.75
2022-08-05T09:32:46.805Z,21.17
2022-08-05T09:35:26.312Z,20.50
2022-08-05T09:36:54.954Z,20.12
2022-08-05T09:38:17.655Z,18.55
2022-08-05T09:39:22.028Z,19.90
2022-08-05T09:40:40.953Z,19.33
2022-08-05T09:43:40.790Z,20.37
2022-08-05T09:44:42.450Z,21.63
2022-08-05T09:47:14.044Z,22.12
2022-08-05T09:48:28.461Z,20.20
2022-08-05T09:51:15.266Z,21.27
2022-08-05T09:52:24.519Z,19.77
2022-08-05T09:53:53.167Z,20.48
2022-08-05T09:55:58.278Z,20.57
2022-08-05T09:56:36.144Z,19.95
2022-08-05T09:59:17.025Z,20.20
2022-08-05T10:00:25.572Z,20.78
2022-08-05T10:02:58.137Z,18.80
2022-08-05T10:05:32.727Z,19.40
2022-08-05T10:08:34.999Z,17.68
2022-08-05T10:10:59.408Z,20.72
2022-08-05T10:12:30.006Z,19.07
2022-08-05T10:14:55.231Z,20.85
2022-08-05T10:16:06.925Z,18.62
2022-08-05T10:18:32.886Z,18.88
2022-08-05T10:22:15.695Z,18.68
2022-08-05T10:24:49.162Z,18.17
2022-08-05T10:28:46.678Z,17.97
2022-08-05T10:33:00.859Z,17.35
2022-08-05T10:33:54.832Z,17.70
2022-08-05T10:36:23.635Z,16.68
2022-08-05T10:37:40.263Z,18.28
2022-08-05T10:40:17.683Z,17.45
2022-08-05T10:42:43.778Z,18.97
2022-08-05T10:45:40.016Z,17.00
2022-08-05T10:46:53.935Z,15.45
2022-08-05T10:48:31.695Z,17.65
2022-08-05T10:51:28.397Z,16.98
2022-08-05T10:52:49.496Z,15.95
2022-08-05T10:53:58.531Z,15.63
2022-08-05T10:56:29.101Z,16.08
2022-08-05T10:59:11.410Z,16.83
2022-08-05T11:03:25.083Z,15.75
2022-08-05T11:04:26.370Z,17.10
2022-08-05T11:05:36.603Z,15.50
2022-08-05T11:07:04.880Z,15.70
2022-08-05T11:08:34.266Z,16.45
2022-08-05T11:10:49.993Z,16.48
2022-08-05T11:13:17.889Z,16.02
2022-08-05T11:17:58.178Z,15.40
2022-08-05T11:18:47.085Z,15.33
2022-08-05T11:21:31.641Z,15.90
2022-08-05T11:24:14.873Z,15.50
2022-08-05T11:27:37.097Z,14.27
2022-08-05T11:28:49.432Z,13.10
2022-08-05T11:31:51.819Z,14.78
2022-08-05T11:36:07.550Z,17.15
2022-08-05T11:42:46.119Z,13.98
2022-08-05T11:47:10.147Z,13.63
2022-08-05T11:48:11.515Z,13.78
2022-08-05T11:50:39.215Z,13.68
2022-08-05T11:51:52.283Z,13.25
2022-08-05T11:54:32.800Z,13.70
2022-08-05T11:58:12.057Z,12.95
2022-08-05T11:59:23.702Z,12.52
2022-08-05T12:04:53.511Z,13.68
2022-08-05T12:08:03.304Z,13.73
2022-08-05T12:10:43.160Z,13.92
2022-08-05T12:11:45.474Z,13.80
2022-08-05T12:14:15.504Z,13.15
2022-08-05T12:15:33.945Z,12.73
2022-08-05T12:18:03.375Z,11.75
2022-08-05T12:20:27.152Z,12.03
2022-08-05T12:21:51.486Z,12.17
2022-08-05T12:23:12.682Z,11.55
2022-08-05T12:25:52.281Z,12.55
2022-08-05T12:27:09.637Z,12.55
2022-08-05T12:30:08.909Z,12.25
2022-08-05T12:32:36.081Z,14.03
2022-08-05T12:35:16.908Z,12.85
2022-08-05T12:37:45.965Z,11.43
2022-08-05T12:40:26.345Z,12.33
2022-08-05T12:42:59.443Z,11.50
2022-08-05T12:45:22.122Z,11.22
2022-08-05T12:46:35.306Z,11.70
2022-08-05T12:48:01.777Z,12.15
2022-08-05T12:50:25.585Z,12.45
2022-08-05T12:52:14.033Z,11.82
2022-08-05T12:54:30.405Z,11.67
2022-08-05T12:55:41.300Z,11.68
2022-08-05T12:58:39.196Z,10.95
2022-08-05T13:05:06.963Z,11.10
2022-08-05T13:07:57.393Z,10.47
2022-08-05T13:10:12.599Z,10.77
2022-08-05T13:12:02.258Z,10.77
2022-08-05T13:12:50.953Z,11.07
2022-08-05T13:14:05.789Z,10.83
2022-08-05T13:15:16.477Z,10.37
2022-08-05T13:16:27.801Z,10.43
2022-08-05T13:18:54.934Z,10.75
2022-08-05T13:21:28.474Z,11.28
2022-08-05T13:23:56.844Z,10.77
2022-08-05T13:26:38.894Z,10.58
2022-08-05T13:27:52.509Z,11.35
2022-08-05T13:29:01.617Z,10.32
2022-08-05T13:31:34.033Z,10.48
2022-08-05T13:34:24.127Z,10.53
2022-08-05T13:37:01.144Z,10.85
2022-08-05T13:40:14.160Z,13.30
2022-08-05T13:40:51.761Z,12.60
2022-08-05T13:43:22.175Z,10.12
2022-08-05T13:44:29.419Z,10.05
2022-08-05T13:45:43.089Z,10.70
2022-08-05T13:47:02.298Z,9.68
2022-08-05T13:48:09.975Z,10.12
2022-08-05T13:50:27.370Z,9.42
2022-08-05T13:51:41.239Z,10.10
2022-08-05T13:52:49.977Z,9.83
2022-08-05T13:54:00.104Z,9.85
2022-08-05T13:55:11.964Z,10.12
2022-08-05T13:56:27.718Z,10.28
2022-08-05T13:58:53.858Z,9.88
2022-08-05T14:01:21.996Z,9.73
2022-08-05T14:06:04.774Z,9.62
2022-08-05T14:06:47.839Z,9.92
2022-08-05T14:09:13.660Z,11.45
2022-08-05T14:10:28.545Z,10.07
2022-08-05T14:12:54.625Z,10.92
2022-08-05T14:14:04.602Z,12.65
2022-08-05T14:16:25.735Z,10.62
2022-08-05T14:17:35.398Z,9.80
2022-08-05T14:18:44.720Z,10.20
2022-08-05T14:19:56.819Z,10.58
2022-08-05T14:22:21.345Z,9.53
2022-08-05T14:23:36.485Z,10.10
2022-08-05T14:25:59.554Z,10.33
2022-08-05T14:28:26.947Z,10.47
2022-08-05T14:31:02.975Z,10.67
2022-08-05T14:33:32.510Z,10.55
2022-08-05T14:34:39.567Z,10.02
2022-08-05T14:35:50.470Z,10.95
2022-08-05T14:38:34.029Z,10.20
2022-08-05T14:40:56.245Z,10.33
2022-08-05T14:43:22.094Z,10.13
2022-08-05T14:46:01.921Z,9.75
2022-08-05T14:48:02.658Z,10.87
2022-08-05T14:48:33.111Z,9.95
2022-08-05T14:49:59.569Z,10.83
2022-08-05T14:52:08.056Z,11.62
2022-08-05T14:54:34.547Z,10.15
2022-08-05T14:55:48.354Z,9.62
2022-08-05T14:56:57.495Z,9.50
2022-08-05T14:58:14.225Z,10.90
2022-08-05T14:59:24.957Z,9.75
2022-08-05T15:00:36.556Z,9.72
2022-08-05T15:03:05.645Z,10.03
2022-08-05T15:06:08.270Z,8.93
2022-08-05T15:08:17.872Z,12.65
2022-08-05T15:09:52.342Z,6.58
2022-08-05T15:11:53.731Z,9.17
2022-08-05T15:13:05.391Z,6.65
2022-08-05T15:15:53.997Z,8.63
2022-08-05T15:18:09.611Z,9.22
2022-08-05T15:20:46.224Z,9.93
2022-08-05T15:22:00.253Z,9.85
2022-08-05T15:23:12.006Z,11.60
2022-08-05T15:24:21.769Z,15.80
2022-08-05T15:26:47.418Z,11.63
2022-08-05T15:27:57.804Z,7.30
2022-08-05T15:29:08.062Z,10.12
2022-08-05T15:30:18.919Z,11.15
2022-08-05T15:31:34.496Z,9.42
2022-08-05T15:32:40.380Z,8.83
2022-08-05T15:35:10.723Z,9.80
2022-08-05T15:38:32.716Z,10.67
2022-08-05T15:41:55.985Z,9.50
2022-08-05T15:43:08.008Z,10.40
2022-08-05T15:44:09.711Z,11.03
2022-08-05T15:45:38.747Z,11.10
2022-08-05T15:46:31.728Z,11.85
2022-08-05T15:47:43.038Z,13.42
2022-08-05T15:49:00.615Z,12.17
2022-08-05T15:52:13.001Z,10.40
2022-08-05T15:52:53.774Z,11.52
2022-08-05T15:53:52.641Z,10.13
2022-08-05T15:55:03.220Z,10.47
2022-08-05T15:56:14.404Z,10.65
2022-08-05T15:58:37.155Z,43.17
2022-08-05T15:59:46.376Z,18.57
2022-08-05T16:02:19.577Z,11.03
2022-08-05T16:04:46.082Z,11.92
2022-08-05T16:07:23.255Z,12.90
2022-08-05T16:09:51.202Z,11.58
2022-08-05T16:11:02.704Z,11.03
2022-08-05T16:13:34.435Z,11.70
2022-08-05T16:14:41.676Z,12.03
2022-08-05T16:20:04.368Z,15.18
2022-08-05T16:22:34.335Z,13.97
2022-08-05T16:25:10.108Z,13.90
2022-08-05T16:26:26.274Z,14.23
2022-08-05T16:28:01.014Z,15.73
2022-08-05T16:29:58.326Z,14.22
2022-08-05T16:31:07.516Z,12.32
2022-08-05T16:32:28.383Z,12.38
2022-08-05T16:33:31.870Z,12.82
2022-08-05T16:36:00.146Z,13.15
2022-08-05T16:38:28.977Z,14.15
2022-08-05T16:42:12.198Z,12.85
2022-08-05T16:42:27.420Z,13.33
2022-08-05T16:44:54.272Z,12.77
2022-08-05T16:46:07.276Z,12.95
2022-08-05T16:47:29.064Z,17.63
2022-08-05T16:48:33.813Z,16.17
2022-08-05T16:49:38.722Z,14.53
2022-08-05T16:52:06.788Z,15.60
2022-08-05T16:54:32.902Z,11.50
2022-08-05T16:58:43.789Z,13.40
2022-08-05T17:01:11.553Z,10.25
2022-08-05T17:05:25.990Z,11.50
2022-08-05T17:07:54.693Z,11.68
2022-08-05T17:10:33.051Z,10.12
2022-08-05T17:12:57.555Z,10.03
2022-08-05T17:14:08.969Z,9.12
2022-08-05T17:15:20.749Z,10.07
2022-08-05T17:16:33.400Z,9.60
2022-08-05T17:17:42.877Z,9.65
2022-08-05T17:18:52.029Z,8.95
2022-08-05T17:21:19.977Z,9.65
2022-08-05T17:22:32.354Z,10.18
2022-08-05T17:25:00.235Z,12.23
2022-08-05T17:27:33.285Z,10.08
2022-08-05T17:31:24.387Z,9.78
2022-08-05T17:34:01.719Z,9.15
2022-08-05T17:35:12.535Z,9.75
2022-08-05T17:36:32.412Z,10.20
2022-08-05T17:38:53.558Z,10.23
2022-08-05T17:40:10.159Z,9.27
2022-08-05T17:42:38.230Z,10.10
2022-08-05T17:45:17.849Z,10.22
2022-08-05T17:48:59.771Z,10.05
2022-08-05T17:52:53.216Z,10.52
2022-08-05T17:55:09.017Z,10.70
2022-08-05T17:59:01.158Z,12.35
2022-08-05T18:00:14.203Z,10.95
2022-08-05T18:02:39.065Z,11.88
2022-08-05T18:04:03.629Z,11.12
2022-08-05T18:06:17.600Z,13.53
2022-08-05T18:08:52.433Z,12.35
2022-08-05T18:11:29.674Z,11.52
2022-08-05T18:13:53.210Z,10.42
2022-08-05T18:15:08.755Z,10.00
2022-08-05T18:17:58.811Z,12.00
2022-08-05T18:22:57.351Z,12.02
2022-08-05T18:25:33.012Z,11.90
2022-08-05T18:26:39.580Z,11.05
2022-08-05T18:29:05.086Z,10.83
2022-08-05T18:30:16.218Z,11.82
2022-08-05T18:31:33.922Z,10.25
2022-08-05T18:33:54.254Z,11.57
2022-08-05T18:35:07.011Z,12.27
2022-08-05T18:37:40.467Z,11.62
2022-08-05T18:41:50.681Z,13.17
2022-08-05T18:42:41.710Z,11.90
2022-08-05T18:43:51.045Z,11.50
2022-08-05T18:45:06.845Z,11.42
2022-08-05T18:46:19.471Z,11.12
2022-08-05T18:48:45.665Z,11.60
2022-08-05T18:50:15.443Z,10.35
2022-08-05T18:52:59.141Z,10.90
2022-08-05T18:54:11.455Z,10.57
2022-08-05T18:56:36.035Z,12.02
2022-08-05T18:57:52.680Z,11.35
2022-08-05T18:59:01.227Z,12.60
2022-08-05T19:01:33.163Z,10.87
2022-08-05T19:03:56.609Z,11.12
2022-08-05T19:07:52.475Z,11.22
2022-08-05T19:10:26.491Z,10.75
2022-08-05T19:12:48.425Z,10.68
2022-08-05T19:16:46.683Z,10.77
2022-08-05T19:18:08.486Z,10.60
2022-08-05T19:20:25.014Z,11.77
2022-08-05T19:22:48.873Z,11.93
2022-08-05T19:26:54.723Z,11.85
2022-08-05T19:29:09.437Z,10.65
2022-08-05T19:31:51.152Z,11.95
2022-08-05T19:32:59.860Z,11.45
2022-08-05T19:35:26.844Z,12.28
2022-08-05T19:38:11.818Z,12.58
2022-08-05T19:42:07.373Z,11.70
2022-08-05T19:44:04.195Z,11.03
2022-08-05T19:44:29.096Z,10.60
2022-08-05T19:45:38.362Z,11.90
2022-08-05T19:46:50.355Z,11.28
2022-08-05T19:47:59.484Z,10.95
2022-08-05T19:50:24.198Z,12.30
2022-08-05T19:52:51.495Z,10.72
2022-08-05T19:56:15.640Z,9.45
2022-08-05T19:56:39.132Z,9.52
2022-08-05T19:59:51.606Z,9.90
2022-08-05T20:00:17.728Z,9.92
2022-08-05T20:02:44.236Z,9.18
2022-08-05T20:05:16.756Z,9.47
2022-08-05T20:07:49.415Z,9.42
2022-08-05T20:09:13.607Z,9.50
2022-08-05T20:10:13.149Z,9.73
2022-08-05T20:12:39.167Z,10.02
2022-08-05T20:15:08.753Z,9.92
2022-08-05T20:19:02.552Z,10.23
2022-08-05T20:21:30.003Z,10.95
2022-08-05T20:24:10.084Z,10.88
2022-08-05T20:26:34.338Z,11.30
2022-08-05T20:27:44.457Z,11.52
2022-08-05T20:28:56.214Z,9.70
2022-08-05T20:31:37.341Z,6.62
2022-08-05T20:32:45.191Z,7.73
2022-08-05T20:35:05.485Z,5.65
2022-08-05T20:36:21.048Z,7.07
2022-08-05T20:38:53.329Z,7.13
2022-08-05T20:39:58.287Z,6.95
2022-08-05T20:42:23.110Z,7.63
2022-08-05T20:44:51.138Z,8.95
2022-08-05T20:46:02.660Z,8.75
2022-08-05T20:48:27.002Z,9.55
2022-08-05T20:49:38.110Z,9.20
2022-08-05T20:50:48.681Z,9.88
2022-08-05T20:51:59.456Z,9.75
2022-08-05T20:53:16.113Z,10.17
2022-08-05T20:56:07.223Z,10.73
2022-08-05T20:56:54.123Z,10.57
2022-08-05T21:00:49.524Z,9.93
2022-08-05T21:03:13.577Z,10.48
2022-08-05T21:04:41.644Z,13.65
2022-08-05T21:05:54.338Z,8.82
2022-08-05T21:07:09.231Z,7.35
2022-08-05T21:08:18.319Z,7.03
2022-08-05T21:09:28.254Z,6.52
2022-08-05T21:12:09.901Z,6.22
2022-08-05T21:14:35.229Z,6.35
2022-08-05T21:17:11.143Z,9.07
2022-08-05T21:18:21.345Z,8.98
2022-08-05T21:19:47.311Z,8.58
2022-08-05T21:22:00.382Z,8.42
2022-08-05T21:24:27.891Z,9.52
2022-08-05T21:28:23.829Z,7.83
2022-08-05T21:29:33.599Z,7.45
2022-08-05T21:30:45.837Z,8.12
2022-08-05T21:31:57.107Z,6.72
2022-08-05T21:34:25.033Z,6.77
2022-08-05T21:36:49.198Z,8.48
2022-08-05T21:39:28.163Z,6.83
2022-08-05T21:40:38.524Z,7.47
2022-08-05T21:43:05.845Z,6.57
2022-08-05T21:44:16.491Z,7.65
2022-08-05T21:46:42.413Z,6.45
2022-08-05T21:49:11.830Z,6.40
2022-08-05T21:53:16.153Z,8.37
2022-08-05T21:56:01.136Z,8.17
2022-08-05T21:58:10.262Z,8.80
2022-08-05T21:59:24.409Z,10.72
2022-08-05T22:00:32.357Z,7.68
2022-08-05T22:02:56.305Z,7.02
2022-08-05T22:04:06.069Z,6.60
2022-08-05T22:05:17.649Z,7.70
2022-08-05T22:06:37.042Z,6.75
2022-08-05T22:08:57.225Z,6.15
2022-08-05T22:11:34.883Z,6.20
2022-08-05T22:14:33.837Z,7.13
2022-08-05T22:16:01.210Z,5.45
2022-08-05T22:16:51.011Z,5.70
2022-08-05T22:18:58.962Z,5.95
2022-08-05T22:20:14.928Z,9.45
2022-08-05T22:21:23.606Z,6.50
2022-08-05T22:24:13.338Z,6.40
2022-08-05T22:27:19.536Z,6.73
2022-08-05T22:28:29.160Z,7.17
2022-08-05T22:29:38.903Z,10.43
2022-08-05T22:32:05.749Z,6.65
2022-08-05T22:33:17.112Z,11.08
2022-08-05T22:34:30.137Z,5.60
2022-08-05T22:36:56.994Z,6.50
2022-08-05T22:39:22.620Z,8.05
2022-08-05T22:42:11.718Z,5.82
2022-08-05T22:43:12.403Z,4.95
2022-08-05T22:45:38.586Z,5.52
2022-08-05T22:46:47.871Z,7.42
2022-08-05T22:50:17.334Z,6.87
2022-08-05T22:53:15.966Z,7.47
2022-08-05T22:54:24.064Z,8.74
2022-08-05T22:55:37.219Z,8.75
2022-08-05T22:56:48.076Z,7.55
2022-08-05T22:57:59.411Z,6.88
2022-08-05T22:59:45.083Z,7.20
2022-08-05T23:00:22.932Z,6.17
2022-08-05T23:02:47.633Z,7.50
2022-08-05T23:03:59.632Z,6.80
2022-08-05T23:05:08.652Z,6.98
2022-08-05T23:07:31.050Z,5.35
2022-08-05T23:08:40.423Z,5.75
2022-08-05T23:11:06.082Z,5.47
2022-08-05T23:12:23.808Z,7.73
2022-08-05T23:13:34.356Z,6.80
2022-08-05T23:14:47.421Z,7.10
2022-08-05T23:17:34.723Z,7.73
2022-08-05T23:19:56.154Z,8.43
2022-08-05T23:21:02.779Z,9.38
2022-08-05T23:22:12.400Z,8.80
2022-08-05T23:23:23.359Z,7.60
2022-08-05T23:25:55.179Z,6.83
2022-08-05T23:28:17.495Z,7.38
2022-08-05T23:32:11.233Z,6.22
2022-08-05T23:33:22.491Z,5.25
2022-08-05T23:34:31.481Z,5.43
2022-08-05T23:35:41.504Z,5.12
2022-08-05T23:36:50.536Z,5.90
2022-08-05T23:39:23.732Z,7.82
2022-08-05T23:40:32.708Z,7.33
2022-08-05T23:41:48.433Z,7.15
2022-08-05T23:42:57.309Z,9.68
2022-08-05T23:44:08.646Z,7.15
2022-08-05T23:46:32.971Z,8.97
2022-08-05T23:47:47.999Z,9.15
2022-08-05T23:48:59.627Z,6.95
2022-08-05T23:51:23.744Z,5.72
2022-08-05T23:52:35.862Z,6.20
2022-08-05T23:53:47.177Z,5.73
2022-08-05T23:56:14.501Z,5.17
2022-08-05T23:58:42.548Z,6.18
